Time;durP1;ratioP1;P1;durP2;ratioP2;P2;SDS_P1;SDS_P2;PMS_P1;PMS_P2;Temp;Humidity;BMP_temperature;BMP_pressure;BME280_temperature;BME280_humidity;BME280_pressure;Samples;Min_cycle;Max_cycle;Signal;HPM_P1;HPM_P2
2024/04/06 05:00:49;;;;;;;4.90;1.65;;;;;;;17.31;60.76;95338.47;6183407;23;20225;-85
2024/04/06 05:03:14;;;;;;;2.70;1.90;;;;;;;17.41;60.65;95317.88;6188344;23;20185;-87
2024/04/06 05:05:41;;;;;;;2.40;1.60;;;;;;;17.51;59.94;95305.88;6190345;23;20262;-82
2024/04/06 05:08:08;;;;;;;2.47;1.63;;;;;;;17.63;59.22;95277.25;6186967;23;20194;-90
2024/04/06 05:10:35;;;;;;;1.85;1.40;;;;;;;17.61;57.06;95167.34;6180369;23;20756;-90
2024/04/06 05:13:00;;;;;;;1.65;1.55;;;;;;;17.71;55.91;95112.09;6180807;23;20790;-90
2024/04/06 05:15:27;;;;;;;2.78;1.35;;;;;;;17.73;54.75;95060.56;6180853;23;20178;-90
2024/04/06 05:17:54;;;;;;;4.05;1.40;;;;;;;17.76;54.75;95065.31;6180631;23;20264;-87
2024/04/06 05:20:20;;;;;;;3.58;1.80;;;;;;;17.82;55.85;95111.28;6180527;23;20170;-88
2024/04/06 05:22:48;;;;;;;2.55;1.83;;;;;;;17.88;55.85;95125.97;6181604;23;20182;-86
2024/04/06 05:25:15;;;;;;;3.65;1.65;;;;;;;18.04;55.69;95132.25;6182194;23;20178;-87
2024/04/06 05:27:42;;;;;;;8.90;6.32;;;;;;;18.12;56.68;95191.78;6181968;23;20225;-87
2024/04/06 05:33:43;;;;;;;;;;;;;;;;;;;;;
2024/04/06 05:37:02;;;;;;;1.70;1.60;;;;;;;18.10;53.02;94995.81;6094597;23;20589;-91
2024/04/06 05:40:24;;;;;;;2.10;1.60;;;;;;;18.06;52.52;94968.66;6174310;23;20202;-89
2024/04/06 05:53:41;;;;;;;2.30;1.42;;;;;;;18.14;51.64;94952.63;5990879;23;20182;-88
2024/04/06 05:56:35;;;;;;;3.05;1.55;;;;;;;18.10;50.98;94934.06;5944607;24;20194;-88
2024/04/06 06:02:29;;;;;;;3.05;1.45;;;;;;;18.22;51.17;94919.16;5945320;23;20187;-89
2024/04/06 06:04:58;;;;;;;1.85;1.50;;;;;;;18.27;51.12;94921.81;6025980;23;20260;-90
2024/04/06 06:07:25;;;;;;;1.33;1.23;;;;;;;18.26;51.03;94909.81;6126392;23;20175;-88
2024/04/06 06:09:51;;;;;;;1.75;1.40;;;;;;;18.26;50.76;94909.81;6148092;23;20205;-88
2024/04/06 06:12:30;;;;;;;;;;;;;;;;;;;;;
2024/04/06 06:15:01;;;;;;;1.35;1.17;;;;;;;18.38;50.35;94901.09;6144763;23;20245;-89
2024/04/06 06:17:28;;;;;;;3.22;1.40;;;;;;;18.47;50.51;94916.06;6148292;23;20567;-88
2024/04/06 06:19:54;;;;;;;1.92;1.27;;;;;;;18.58;50.58;94922.19;6148197;23;20212;-89
2024/04/06 06:22:22;;;;;;;2.00;1.15;;;;;;;18.67;50.54;94917.38;6150581;23;20209;-88
2024/04/06 06:27:39;;;;;;;1.50;1.20;;;;;;;18.70;49.81;94875.94;6134856;23;20229;-86
2024/04/06 06:30:07;;;;;;;2.92;1.40;;;;;;;18.74;49.60;94879.66;6149576;23;20167;-88
2024/04/06 06:32:34;;;;;;;2.67;1.30;;;;;;;18.79;49.17;94861.47;6148487;23;20171;-87
2024/04/06 06:35:01;;;;;;;2.08;1.20;;;;;;;18.88;49.30;94854.75;6148868;23;20185;-86
2024/04/06 06:37:29;;;;;;;1.77;1.30;;;;;;;19.00;49.26;94861.66;6147872;23;20177;-86
2024/04/06 06:39:54;;;;;;;1.30;1.20;;;;;;;19.12;49.39;94885.78;6148268;23;20270;-88
2024/04/06 06:42:23;;;;;;;1.90;1.35;;;;;;;19.21;48.89;94835.50;6148317;23;20178;-86
2024/04/06 06:44:49;;;;;;;4.75;1.30;;;;;;;19.25;48.55;94815.69;6148110;23;20225;-86
2024/04/06 06:47:15;;;;;;;2.85;1.20;;;;;;;19.37;48.51;94819.97;6147741;23;20203;-88
2024/04/06 06:49:41;;;;;;;2.63;1.20;;;;;;;19.47;48.70;94841.69;6147677;23;20178;-87
2024/04/06 06:52:07;;;;;;;1.95;1.25;;;;;;;19.58;47.52;94774.72;6146859;23;20198;-86
2024/04/06 06:54:39;;;;;;;1.40;1.10;;;;;;;19.69;47.01;94749.44;6148349;23;20187;-88
2024/04/06 06:57:06;;;;;;;1.15;1.05;;;;;;;19.78;46.61;94729.63;6147881;23;20231;-87
2024/04/06 06:59:36;;;;;;;2.47;1.52;;;;;;;19.88;46.96;94725.22;6148920;23;20217;-87
2024/04/06 07:02:02;;;;;;;1.55;1.20;;;;;;;20.00;46.05;94702.31;6171465;23;20189;-88
2024/04/06 07:04:35;;;;;;;1.80;1.20;;;;;;;20.17;45.76;94691.63;6180612;23;21040;-87
2024/04/06 07:07:10;;;;;;;1.25;1.15;;;;;;;20.31;45.72;94684.06;6181440;23;20173;-88
2024/04/06 07:09:37;;;;;;;1.70;1.20;;;;;;;20.49;45.38;94664.50;6181794;23;20537;-87
2024/04/06 07:12:07;;;;;;;2.92;1.35;;;;;;;20.64;46.34;94688.06;6182359;23;20194;-91
2024/04/06 07:14:41;;;;;;;1.17;1.08;;;;;;;20.81;45.44;94680.72;6183038;23;20174;-88
2024/04/06 07:17:27;;;;;;;1.48;1.30;;;;;;;20.92;44.52;94644.88;6181461;23;20178;-89
2024/04/06 07:19:53;;;;;;;2.95;1.02;;;;;;;21.13;44.75;94645.63;6183311;23;20653;-89
2024/04/06 07:22:32;;;;;;;1.38;1.10;;;;;;;21.35;44.37;94627.81;6180390;23;20245;-88
2024/04/06 07:25:03;;;;;;;2.05;1.30;;;;;;;21.60;44.21;94617.22;6182490;23;20176;-89
2024/04/06 07:27:30;;;;;;;2.30;1.30;;;;;;;21.75;43.06;94576.28;6181234;23;20228;-90
2024/04/06 07:30:29;;;;;;;2.00;1.15;;;;;;;21.94;43.31;94577.22;6182231;23;20185;-88
2024/04/06 07:33:14;;;;;;;1.25;1.10;;;;;;;22.25;42.97;94565.50;6181501;23;20175;-89
2024/04/06 07:36:22;;;;;;;;;;;;;;;;;;;;;
2024/04/06 07:39:00;;;;;;;3.42;1.33;;;;;;;22.68;42.05;94516.59;6182679;23;20814;-90
2024/04/06 07:42:06;;;;;;;2.45;1.25;;;;;;;22.85;41.71;94528.53;6182520;23;20212;-88
2024/04/06 07:44:52;;;;;;;1.92;1.20;;;;;;;22.93;42.87;94554.94;6146147;23;20174;-90
2024/04/06 07:47:50;;;;;;;1.88;1.17;;;;;;;22.98;41.07;94486.63;6181251;23;20178;-88
2024/04/06 07:50:15;;;;;;;2.05;1.10;;;;;;;23.15;41.25;94488.00;6129478;23;20174;-89
2024/04/06 07:53:19;;;;;;;3.10;1.70;;;;;;;23.21;41.03;94471.91;6184307;23;20833;-89
2024/04/06 07:55:48;;;;;;;2.85;1.20;;;;;;;23.40;41.00;94472.69;6168057;23;20178;-89
2024/04/06 07:58:24;;;;;;;2.20;1.30;;;;;;;23.51;40.85;94473.34;6181822;23;20201;-89
2024/04/06 08:00:52;;;;;;;3.40;1.42;;;;;;;23.77;41.66;94529.75;6180772;23;20240;-89
2024/04/06 08:03:35;;;;;;;1.15;1.08;;;;;;;24.02;40.18;94465.50;6182053;23;20170;-89
2024/04/06 08:06:16;;;;;;;3.08;1.40;;;;;;;24.21;39.72;94433.13;6180974;23;20261;-90
2024/04/06 08:09:07;;;;;;;4.25;1.48;;;;;;;24.29;40.00;94411.41;6181125;23;20186;-89
2024/04/06 08:11:53;;;;;;;1.88;1.20;;;;;;;24.38;39.34;94383.38;6180783;23;20194;-90
2024/04/06 08:14:24;;;;;;;2.50;1.33;;;;;;;24.32;38.15;94297.72;6181289;23;20158;-90
2024/04/06 08:17:07;;;;;;;2.13;1.17;;;;;;;24.37;38.02;94297.63;6181665;23;20155;-89
2024/04/06 08:19:34;;;;;;;1.02;0.85;;;;;;;24.48;37.74;94308.69;6181011;23;20257;-90
2024/04/06 08:22:01;;;;;;;6.95;1.33;;;;;;;24.53;37.45;94275.16;6179681;23;20179;-89
2024/04/06 08:24:45;;;;;;;1.42;1.20;;;;;;;24.66;37.67;94298.03;6181444;23;20174;-89
2024/04/06 08:30:27;;;;;;;;;;;;;;;;;;;;;
2024/04/06 08:33:08;;;;;;;1.92;1.30;;;;;;;25.17;35.64;94186.31;6181156;23;20166;-89
2024/04/06 08:35:42;;;;;;;2.25;1.15;;;;;;;25.17;36.16;94186.31;6185862;23;20182;-87
2024/04/06 08:38:07;;;;;;;1.48;0.93;;;;;;;25.25;34.88;94138.16;6181453;23;20194;-90
2024/04/06 08:40:41;;;;;;;2.15;1.08;;;;;;;25.32;34.79;94122.69;6180751;23;20201;-89
2024/04/06 08:43:29;;;;;;;1.70;1.10;;;;;;;25.43;35.38;94152.16;6180672;23;20170;-89
2024/04/06 08:46:08;;;;;;;1.10;1.00;;;;;;;25.43;35.72;94208.28;6181017;23;20205;-90
2024/04/06 08:48:56;;;;;;;1.90;1.10;;;;;;;25.46;35.72;94206.91;6181919;23;20186;-90
2024/04/06 08:52:10;;;;;;;;;;;;;;;;;;;;;
2024/04/06 08:55:21;;;;;;;2.60;1.17;;;;;;;25.60;35.52;94175.16;6181827;23;20249;-90
2024/04/06 08:57:59;;;;;;;1.20;1.10;;;;;;;25.67;35.15;94184.22;6179140;23;20515;-90
2024/04/06 09:00:54;;;;;;;1.40;1.10;;;;;;;25.83;34.99;94176.69;6181571;23;20253;-90
2024/04/06 09:03:22;;;;;;;1.40;1.30;;;;;;;26.00;35.49;94186.50;6151020;23;20258;-87
2024/04/06 09:43:00;;;;;;;1.33;1.20;;;;;;;27.61;32.08;93986.88;6010325;23;20637;-93
2024/04/06 09:48:51;;;;;;;2.05;1.20;;;;;;;27.46;31.39;93945.09;6072643;23;20205;-90
2024/04/06 09:51:32;;;;;;;;;;;;;;;;;;;;;
2024/04/06 09:54:07;;;;;;;3.42;1.20;;;;;;;27.41;31.32;93946.06;6180377;23;20158;-92
2024/04/06 09:56:45;;;;;;;2.38;1.33;;;;;;;27.53;31.41;93948.78;6181784;23;20173;-92
2024/04/06 09:59:48;;;;;;;;;;;;;;;;;;;;;
2024/04/06 10:02:23;;;;;;;1.88;1.15;;;;;;;27.70;30.43;93871.22;6181944;23;20169;-93
2024/04/06 10:05:32;;;;;;;1.55;1.00;;;;;;;27.59;30.86;93893.84;6184626;23;20236;-93
2024/04/06 10:08:50;;;;;;;1.75;1.20;;;;;;;27.75;30.68;93937.13;6182502;23;20202;-92
2024/04/06 10:18:25;;;;;;;3.55;1.73;;;;;;;27.81;30.37;93898.03;6035042;23;20269;-92
2024/04/06 10:21:16;;;;;;;3.90;0.93;;;;;;;27.88;29.16;93818.91;6029082;23;20158;-91
2024/04/06 10:24:27;;;;;;;1.52;1.20;;;;;;;27.90;29.62;93827.31;6034786;23;20225;-93
2024/04/06 10:27:49;;;;;;;2.70;2.40;;;;;;;27.91;29.13;93788.38;6184310;23;20213;-92
2024/04/06 10:39:51;;;;;;;1.77;0.95;;;;;;;27.57;29.18;93795.56;6061157;23;20271;-92
2024/04/06 10:42:46;;;;;;;1.48;1.35;;;;;;;27.58;29.46;93799.78;6183643;23;20174;-92
2024/04/06 10:45:37;;;;;;;1.60;1.50;;;;;;;27.66;29.65;93845.75;6184367;23;20289;-92
2024/04/06 10:48:33;;;;;;;3.10;1.10;;;;;;;27.67;29.41;93816.34;6184325;23;20696;-91
2024/04/06 10:54:36;;;;;;;1.02;1.00;;;;;;;27.54;29.41;93796.19;6180079;23;20173;-93
2024/04/06 11:07:09;;;;;;;1.15;0.80;;;;;;;27.83;28.65;93750.34;6180783;23;20170;-93
2024/04/06 11:22:01;;;;;;;1.38;1.00;;;;;;;27.56;28.24;93735.84;6184469;23;20840;-93
2024/04/06 11:24:50;;;;;;;1.52;1.00;;;;;;;27.48;27.70;93667.97;6183833;23;20257;-92
2024/04/06 11:27:48;;;;;;;1.13;0.90;;;;;;;27.39;26.82;93630.28;6187042;23;20175;-93
2024/04/06 11:30:46;;;;;;;1.83;1.25;;;;;;;27.27;27.05;93631.06;6101217;23;20210;-95
2024/04/06 11:41:13;;;;;;;0.98;0.98;;;;;;;27.60;27.34;93641.56;5926724;24;20180;-91
2024/04/06 11:47:08;;;;;;;1.40;1.02;;;;;;;27.64;25.55;93526.13;5967444;23;20186;-89
2024/04/06 11:49:59;;;;;;;2.17;0.98;;;;;;;27.42;26.16;93547.69;6102188;23;20238;-90
2024/04/06 11:53:01;;;;;;;1.65;0.90;;;;;;;27.54;26.50;93584.69;6150833;23;20253;-89
2024/04/06 11:55:34;;;;;;;3.28;1.60;;;;;;;27.67;26.67;93604.00;6151476;23;20178;-88
2024/04/06 11:58:11;;;;;;;3.55;3.25;;;;;;;27.80;26.72;93597.59;6152775;23;20208;-88
2024/04/06 12:00:47;;;;;;;2.30;1.10;;;;;;;27.97;25.76;93583.34;6150973;23;20494;-88
2024/04/06 12:06:44;;;;;;;3.95;1.40;;;;;;;28.15;26.52;93613.72;6145119;23;20262;-88
2024/04/06 12:09:20;;;;;;;0.98;0.90;;;;;;;28.29;25.48;93561.22;6152580;23;20221;-88
2024/04/06 12:12:14;;;;;;;1.23;0.90;;;;;;;28.29;24.93;93494.31;6152553;23;20262;-91
2024/04/06 12:14:59;;;;;;;1.77;1.00;;;;;;;28.44;24.60;93480.31;6151306;23;20159;-90
2024/04/06 12:17:55;;;;;;;1.73;1.00;;;;;;;28.65;24.13;93472.13;6150803;23;20202;-90
2024/04/06 12:20:31;;;;;;;1.80;0.90;;;;;;;28.78;24.00;93471.72;6146187;23;20723;-90
2024/04/06 12:23:00;;;;;;;1.55;1.00;;;;;;;28.76;23.85;93454.63;6151349;23;20167;-90
2024/04/06 12:25:36;;;;;;;1.13;0.82;;;;;;;28.82;23.61;93435.50;6150669;23;20246;-91
2024/04/06 12:28:03;;;;;;;1.17;0.98;;;;;;;28.85;23.72;93447.31;6152087;23;20202;-90
2024/04/06 12:30:45;;;;;;;1.40;0.80;;;;;;;28.90;22.90;93412.56;6151914;23;20250;-91
2024/04/06 12:33:26;;;;;;;1.13;1.02;;;;;;;28.88;22.91;93377.72;6151567;23;20179;-90
2024/04/06 12:35:52;;;;;;;1.08;0.80;;;;;;;28.90;23.20;93393.25;6151441;23;20189;-89
2024/04/06 12:38:25;;;;;;;1.48;0.90;;;;;;;28.87;23.14;93405.31;6150103;23;20199;-90
2024/04/06 12:40:53;;;;;;;1.60;0.80;;;;;;;28.99;23.06;93418.47;6150698;23;20840;-89
2024/04/06 12:43:21;;;;;;;0.80;0.80;;;;;;;28.81;23.01;93366.97;6150461;23;20217;-88
2024/04/06 12:46:08;;;;;;;1.25;0.85;;;;;;;28.54;22.94;93356.13;6149861;23;20574;-90
2024/04/06 12:51:23;;;;;;;2.10;1.00;;;;;;;28.36;23.41;93380.66;6134229;23;20266;-91
2024/04/06 12:54:06;;;;;;;1.25;1.00;;;;;;;28.24;23.67;93405.31;6149036;23;20171;-88
2024/04/06 12:57:36;;;;;;;1.25;0.90;;;;;;;28.36;23.05;93389.34;6148649;23;20257;-89
2024/04/06 12:59:25;;;;;;;1.17;1.00;;;;;;;28.47;22.79;93373.75;6148788;23;20197;-88
2024/04/06 13:01:52;;;;;;;0.98;0.80;;;;;;;28.71;23.39;93404.53;6149760;23;20178;-87
2024/04/06 13:04:19;;;;;;;2.97;0.90;;;;;;;28.73;21.60;93289.19;6150436;23;20331;-88
2024/04/06 13:06:45;;;;;;;0.82;0.82;;;;;;;28.85;21.08;93270.59;6149348;23;20170;-88
2024/04/06 13:09:11;;;;;;;1.00;0.90;;;;;;;28.84;21.25;93281.53;6149434;23;20230;-88
2024/04/06 13:11:39;;;;;;;2.28;0.80;;;;;;;28.71;21.73;93295.94;6149353;23;20179;-88
2024/04/06 13:14:05;;;;;;;2.55;0.90;;;;;;;28.85;21.80;93301.59;6149178;23;20225;-88
2024/04/06 13:16:39;;;;;;;1.10;0.90;;;;;;;28.94;21.52;93274.91;6149896;23;20926;-88
2024/04/06 13:19:07;;;;;;;2.20;0.80;;;;;;;29.05;21.54;93311.09;6149667;23;20202;-88
2024/04/06 13:21:41;;;;;;;1.67;0.98;;;;;;;28.92;21.86;93330.88;6147677;23;20173;-88
2024/04/06 13:24:07;;;;;;;2.50;0.80;;;;;;;28.86;22.65;93366.72;6150298;23;20238;-88
2024/04/06 13:26:42;;;;;;;1.25;1.00;;;;;;;28.96;22.67;93400.63;6149271;23;20179;-88
2024/04/06 13:29:16;;;;;;;2.60;0.98;;;;;;;28.88;22.60;93373.19;6149325;23;20277;-88
2024/04/06 13:32:08;;;;;;;1.58;0.80;;;;;;;28.89;22.96;93397.78;6147941;23;20688;-89
2024/04/06 13:34:56;;;;;;;0.90;0.80;;;;;;;28.88;22.15;93324.72;6149335;23;20151;-89
2024/04/06 13:44:53;;;;;;;1.35;0.70;;;;;;;29.01;22.56;93363.25;6076555;23;20187;-87
2024/04/06 13:47:19;;;;;;;1.40;1.00;;;;;;;29.14;23.85;93454.00;6103563;23;20179;-89
2024/04/06 13:49:46;;;;;;;3.53;1.40;;;;;;;29.12;24.21;93517.19;6155719;23;20206;-90
2024/04/06 13:52:11;;;;;;;1.92;1.08;;;;;;;29.01;23.56;93457.88;6149999;23;20194;-89
2024/04/06 13:54:40;;;;;;;5.07;1.38;;;;;;;28.94;23.47;93457.69;6150093;23;20258;-85
2024/04/06 13:57:16;;;;;;;1.60;1.20;;;;;;;28.95;23.87;93464.53;6150037;23;20175;-89
2024/04/06 14:00:27;;;;;;;1.05;0.80;;;;;;;29.09;23.91;93480.75;6148545;23;20194;-90
2024/04/06 14:16:20;;;;;;;2.28;1.10;;;;;;;28.64;24.95;93505.03;6040468;23;20225;-85
2024/04/06 14:18:54;;;;;;;2.35;1.10;;;;;;;28.57;23.10;93428.03;6153775;23;20527;-86
2024/04/06 14:21:43;;;;;;;2.42;1.00;;;;;;;28.74;23.42;93451.53;6151592;23;20182;-86
2024/04/06 14:24:40;;;;;;;1.10;1.00;;;;;;;29.02;23.83;93454.88;6154418;23;20190;-88
2024/04/06 14:27:06;;;;;;;1.50;1.00;;;;;;;29.11;22.58;93375.19;6153668;23;20156;-84
2024/04/06 14:29:33;;;;;;;1.20;0.82;;;;;;;29.12;22.08;93336.97;6152633;23;20831;-86
2024/04/06 14:31:59;;;;;;;0.70;0.70;;;;;;;29.02;21.40;93280.00;6151179;23;20213;-85
2024/04/06 14:34:25;;;;;;;0.90;0.90;;;;;;;29.06;21.06;93280.81;6152210;23;20198;-86
2024/04/06 14:36:52;;;;;;;0.70;0.70;;;;;;;29.15;21.45;93293.88;6152429;23;20190;-87
2024/04/06 14:39:19;;;;;;;1.25;0.90;;;;;;;29.25;21.70;93295.94;6152144;23;20233;-88
2024/04/06 14:41:47;;;;;;;1.05;0.88;;;;;;;29.29;21.03;93277.47;6151233;23;20181;-87
2024/04/06 14:44:13;;;;;;;4.82;1.05;;;;;;;29.31;22.04;93301.75;6153047;23;20257;-83
2024/04/06 14:46:39;;;;;;;1.00;0.90;;;;;;;29.41;22.42;93335.69;6151842;23;20175;-87
2024/04/06 14:49:44;;;;;;;1.05;0.95;;;;;;;29.49;22.16;93355.91;6150735;23;20886;-87
2024/04/06 14:58:53;;;;;;;1.73;1.10;;;;;;;29.49;21.76;93287.72;6063229;23;20206;-89
2024/04/06 15:01:28;;;;;;;2.55;1.00;;;;;;;29.44;21.41;93309.22;6155987;23;20198;-87
2024/04/06 15:04:00;;;;;;;2.97;0.90;;;;;;;29.48;20.84;93282.78;6152522;23;20178;-87
2024/04/06 15:15:23;;;;;;;2.78;1.00;;;;;;;29.28;20.44;93244.13;6150492;23;20228;-87
2024/04/06 15:18:09;;;;;;;1.30;0.90;;;;;;;29.32;20.88;93280.19;6149601;23;20194;-89
2024/04/06 15:21:03;;;;;;;;;;;;;;;;;;;;;
2024/04/06 15:23:29;;;;;;;1.08;0.95;;;;;;;29.31;20.94;93278.66;6150870;23;20167;-88
2024/04/06 15:31:33;;;;;;;0.80;0.80;;;;;;;29.15;20.68;93236.34;6150739;23;20179;-90
2024/04/06 15:34:07;;;;;;;2.35;1.00;;;;;;;29.12;21.35;93284.72;6150973;23;20268;-87
2024/04/06 15:36:44;;;;;;;1.15;0.90;;;;;;;28.99;20.55;93246.25;6150339;23;20265;-88
2024/04/06 15:39:28;;;;;;;1.67;0.82;;;;;;;29.06;20.95;93264.16;6150906;23;20191;-86
2024/04/06 15:42:23;;;;;;;1.15;0.85;;;;;;;29.02;21.03;93258.03;6150980;23;20252;-88
2024/04/06 15:44:57;;;;;;;1.10;1.00;;;;;;;28.88;20.85;93263.81;6151209;23;20231;-87
2024/04/06 15:47:34;;;;;;;0.80;0.80;;;;;;;28.87;20.74;93267.56;6150873;23;20193;-87
2024/04/06 15:50:09;;;;;;;1.95;0.80;;;;;;;28.85;21.03;93275.13;6152396;23;20535;-87
2024/04/06 15:52:48;;;;;;;0.90;0.90;;;;;;;28.70;21.56;93299.72;6150398;23;20186;-87
2024/04/06 15:55:26;;;;;;;1.70;0.85;;;;;;;28.59;21.72;93317.25;6151826;23;20199;-87
2024/04/06 15:58:19;;;;;;;3.85;0.90;;;;;;;28.52;21.59;93305.38;6151130;23;20254;-88
2024/04/06 16:01:00;;;;;;;1.13;1.02;;;;;;;28.45;21.79;93321.13;6106666;23;20186;-87
2024/04/06 16:06:56;;;;;;;1.30;1.10;;;;;;;28.28;22.11;93333.97;6147770;23;20186;-87
2024/04/06 16:09:25;;;;;;;1.70;1.08;;;;;;;28.33;22.37;93370.75;6149566;23;20191;-87
2024/04/06 16:11:54;;;;;;;1.40;1.10;;;;;;;28.34;22.59;93391.56;6149849;23;20258;-88
2024/04/06 16:14:23;;;;;;;1.40;1.10;;;;;;;28.32;23.13;93416.84;6151031;23;20199;-86
2024/04/06 16:16:51;;;;;;;1.73;1.13;;;;;;;28.23;22.45;93361.44;6150180;23;20634;-87
2024/04/06 16:19:20;;;;;;;2.15;1.10;;;;;;;28.19;22.13;93361.34;6150007;23;20536;-87
2024/04/06 16:21:51;;;;;;;1.80;0.88;;;;;;;28.13;22.26;93375.91;6149788;23;20170;-88
2024/04/06 16:24:17;;;;;;;1.30;1.20;;;;;;;28.00;22.66;93360.44;6150250;23;20194;-86
2024/04/06 16:26:57;;;;;;;1.85;1.13;;;;;;;27.88;23.09;93397.56;6149428;23;20183;-87
2024/04/06 16:29:34;;;;;;;3.70;1.10;;;;;;;27.77;22.62;93395.38;6150228;23;20218;-88
2024/04/06 16:35:03;;;;;;;1.55;1.10;;;;;;;27.58;23.29;93429.63;6098707;23;20209;-88
2024/04/06 16:37:35;;;;;;;1.98;1.23;;;;;;;27.53;23.68;93454.38;6149150;23;20229;-88
2024/04/06 16:40:11;;;;;;;1.08;1.00;;;;;;;27.46;24.01;93470.06;6150686;23;20210;-88
2024/04/06 16:42:36;;;;;;;1.20;1.10;;;;;;;27.40;23.72;93450.22;6150373;23;20181;-88
2024/04/06 16:45:11;;;;;;;1.20;1.02;;;;;;;27.36;23.75;93435.38;6150252;23;20179;-88
2024/04/06 16:47:39;;;;;;;3.00;1.00;;;;;;;27.32;23.85;93456.44;6149414;23;20186;-88
2024/04/06 16:50:06;;;;;;;1.58;1.20;;;;;;;27.25;23.78;93460.72;6150162;23;20177;-88
2024/04/06 16:52:32;;;;;;;1.77;1.00;;;;;;;27.22;24.18;93454.22;6149514;23;20194;-87
2024/04/06 16:54:58;;;;;;;1.83;1.08;;;;;;;27.17;24.08;93452.56;6149070;23;20245;-88
2024/04/06 16:57:42;;;;;;;;;;;;;;;;;;;;;
2024/04/06 17:00:39;;;;;;;1.10;1.00;;;;;;;27.07;24.19;93486.63;6145871;23;20250;-88
2024/04/06 17:03:05;;;;;;;1.10;0.90;;;;;;;27.01;24.52;93501.91;6149347;23;20171;-89
2024/04/06 17:05:38;;;;;;;1.50;1.00;;;;;;;26.93;25.43;93534.47;6149386;23;20221;-87
2024/04/06 17:08:04;;;;;;;1.00;1.00;;;;;;;26.85;25.22;93527.41;6149758;23;20197;-89
2024/04/06 17:10:36;;;;;;;1.23;1.13;;;;;;;26.78;25.23;93527.94;6149769;23;20273;-88
2024/04/06 17:13:05;;;;;;;1.23;1.10;;;;;;;26.72;25.98;93557.53;6148063;23;20199;-88
2024/04/06 17:15:36;;;;;;;1.35;1.20;;;;;;;26.66;25.86;93561.47;6149418;23;20245;-88
2024/04/06 17:18:07;;;;;;;5.35;1.70;;;;;;;26.62;25.96;93589.59;6148725;23;20191;-86
2024/04/06 17:20:37;;;;;;;5.20;1.60;;;;;;;26.51;27.99;93708.03;6149207;23;20830;-85
2024/04/06 17:23:07;;;;;;;1.65;1.40;;;;;;;26.44;27.60;93711.19;6150662;23;20170;-84
2024/04/06 17:25:34;;;;;;;1.90;1.40;;;;;;;26.34;28.73;93763.56;6151074;23;20625;-83
2024/04/06 17:28:00;;;;;;;4.80;1.70;;;;;;;26.23;28.65;93775.53;6152753;23;20205;-84
2024/04/06 17:30:26;;;;;;;1.70;1.60;;;;;;;26.15;28.98;93795.63;6151997;23;20257;-84
2024/04/06 17:32:53;;;;;;;5.82;5.22;;;;;;;26.07;29.27;93825.44;6151235;23;20222;-85
2024/04/06 17:35:20;;;;;;;4.10;3.10;;;;;;;25.97;30.07;93852.16;6151142;23;20198;-85
2024/04/06 17:37:45;;;;;;;4.10;3.70;;;;;;;25.88;29.62;93838.22;6150172;23;20665;-84
2024/04/06 17:40:12;;;;;;;4.80;3.13;;;;;;;25.78;30.29;93881.53;6151113;23;20178;-83
2024/04/06 17:42:39;;;;;;;6.82;4.28;;;;;;;25.68;30.54;93911.59;6150942;23;20179;-84
2024/04/06 17:45:06;;;;;;;8.43;7.63;;;;;;;25.58;30.94;93940.91;6152099;23;20175;-83
2024/04/06 17:47:31;;;;;;;6.22;5.50;;;;;;;25.51;31.63;93947.72;6151009;23;20657;-84
2024/04/06 17:49:59;;;;;;;5.40;3.58;;;;;;;25.39;32.25;93979.97;6151649;23;20186;-84
2024/04/06 17:52:25;;;;;;;5.70;3.00;;;;;;;25.26;32.14;93986.91;6154957;23;20516;-84
2024/04/06 17:54:51;;;;;;;5.03;3.22;;;;;;;25.18;31.31;93950.78;6162813;23;20183;-86
2024/04/06 17:57:17;;;;;;;5.00;3.40;;;;;;;25.07;31.68;93965.31;6160298;23;20245;-87
2024/04/06 17:59:43;;;;;;;5.68;3.33;;;;;;;24.99;32.07;93995.81;6154485;23;20630;-87
2024/04/06 18:02:11;;;;;;;6.63;3.40;;;;;;;24.89;32.63;94030.28;6160438;23;20469;-85
2024/04/06 18:07:22;;;;;;;7.70;3.70;;;;;;;24.69;33.62;94075.56;6149579;23;20245;-85
2024/04/06 18:09:48;;;;;;;6.15;3.63;;;;;;;24.61;34.17;94086.84;6153633;23;20207;-85
2024/04/06 18:12:18;;;;;;;5.40;3.28;;;;;;;24.52;33.63;94080.72;6154608;23;20179;-85
2024/04/06 18:15:14;;;;;;;5.45;3.45;;;;;;;24.41;33.89;94096.78;6153836;23;20539;-86
2024/04/06 18:17:52;;;;;;;8.93;4.32;;;;;;;24.29;33.83;94093.88;6154175;23;20171;-85
2024/04/06 18:20:17;;;;;;;7.57;4.70;;;;;;;24.21;34.75;94135.88;6153291;23;20209;-85
2024/04/06 18:22:58;;;;;;;5.97;4.80;;;;;;;24.15;35.54;94187.03;6154041;23;20182;-86
2024/04/06 18:25:24;;;;;;;9.82;4.90;;;;;;;24.08;35.80;94226.88;6154387;23;20182;-86
2024/04/06 18:28:01;;;;;;;7.03;4.80;;;;;;;24.03;37.21;94290.09;6155328;23;20182;-86
2024/04/06 18:30:29;;;;;;;20.88;18.70;;;;;;;23.90;37.63;94330.28;6154052;23;20155;-83
2024/04/06 18:32:56;;;;;;;18.60;15.45;;;;;;;23.79;37.65;94313.94;6154511;23;20284;-87
2024/04/06 18:35:28;;;;;;;14.70;13.20;;;;;;;23.75;36.67;94261.16;6152867;23;20226;-85
2024/04/06 18:37:58;;;;;;;14.55;13.00;;;;;;;23.74;36.56;94271.97;6151808;23;20199;-84
2024/04/06 18:40:24;;;;;;;13.60;10.80;;;;;;;23.66;36.57;94255.03;6153318;23;20171;-86
2024/04/06 18:42:50;;;;;;;14.20;10.10;;;;;;;23.60;36.92;94274.56;6152533;23;20179;-85
2024/04/06 18:45:29;;;;;;;12.88;10.70;;;;;;;23.53;37.62;94303.06;6151911;23;20189;-86
2024/04/06 18:47:56;;;;;;;26.63;21.58;;;;;;;23.49;37.86;94323.06;6152334;23;20199;-85
2024/04/06 18:50:22;;;;;;;49.92;43.05;;;;;;;23.46;38.62;94368.34;6150854;23;20175;-85
2024/04/06 18:52:49;;;;;;;33.80;29.05;;;;;;;23.41;37.85;94340.28;6153778;23;20203;-85
2024/04/06 18:55:19;;;;;;;22.13;15.65;;;;;;;23.33;37.84;94327.78;6152669;23;20245;-84
2024/04/06 18:57:46;;;;;;;13.38;12.18;;;;;;;23.30;37.91;94344.13;6156498;23;20503;-85
2024/04/06 19:00:12;;;;;;;16.08;12.52;;;;;;;23.27;37.77;94342.09;6153787;23;20179;-86
2024/04/06 19:02:42;;;;;;;20.02;17.00;;;;;;;23.16;38.16;94358.25;6153714;23;20178;-85
2024/04/06 19:05:09;;;;;;;19.02;13.90;;;;;;;23.12;38.71;94380.91;6152696;23;20235;-85
2024/04/06 19:07:36;;;;;;;19.90;15.20;;;;;;;23.06;38.86;94398.59;6153241;23;20171;-87
2024/04/06 19:10:01;;;;;;;15.48;11.93;;;;;;;22.99;39.17;94419.94;6153625;23;20642;-85
2024/04/06 19:12:36;;;;;;;11.32;9.15;;;;;;;22.96;39.29;94422.34;6152873;23;20182;-86
2024/04/06 19:15:14;;;;;;;12.50;8.57;;;;;;;22.90;39.99;94457.59;6117635;23;20211;-85
2024/04/06 19:17:57;;;;;;;19.55;14.20;;;;;;;22.82;39.80;94456.38;6153295;23;20253;-85
2024/04/06 19:20:50;;;;;;;14.48;11.13;;;;;;;22.70;40.51;94480.38;6151250;23;20182;-88
2024/04/06 19:23:21;;;;;;;17.25;12.70;;;;;;;22.65;39.58;94456.78;6155446;23;20505;-85
2024/04/06 19:25:55;;;;;;;19.15;15.23;;;;;;;22.58;39.58;94435.34;6154826;23;20171;-85
2024/04/06 19:28:26;;;;;;;17.85;14.02;;;;;;;22.54;38.95;94387.13;6155780;23;20193;-85
2024/04/06 19:30:55;;;;;;;17.02;11.70;;;;;;;22.52;39.40;94412.84;6156412;23;20198;-85
2024/04/06 19:33:21;;;;;;;10.65;7.40;;;;;;;22.48;40.02;94455.69;6156148;23;20268;-85
2024/04/06 19:36:14;;;;;;;7.68;6.97;;;;;;;22.42;40.50;94469.91;6155120;23;20258;-85
2024/04/06 19:45:44;;;;;;;9.30;7.97;;;;;;;22.44;38.75;94389.09;5915022;23;20203;-86
2024/04/06 19:49:18;;;;;;;;;;;;;;;;;;;;;
2024/04/06 19:52:01;;;;;;;8.05;6.13;;;;;;;22.52;37.39;94297.41;6145572;23;20175;-88
2024/04/06 20:12:14;;;;;;;8.00;5.70;;;;;;;22.36;37.19;94273.22;5952878;24;20206;-89
2024/04/06 20:15:00;;;;;;;8.02;5.40;;;;;;;22.38;37.03;94265.88;6024417;23;20284;-89
2024/04/06 20:17:44;;;;;;;7.60;4.55;;;;;;;22.39;36.93;94279.75;6150759;23;20186;-89
2024/04/06 20:20:17;;;;;;;5.03;4.53;;;;;;;22.41;37.26;94280.25;6149891;23;20171;-89
2024/04/06 20:26:20;;;;;;;;;;;;;;;;;;;;;
2024/04/06 20:32:09;;;;;;;5.03;4.50;;;;;;;22.42;37.67;94307.28;6031164;23;20177;-89
2024/04/06 20:34:41;;;;;;;5.30;4.38;;;;;;;22.46;37.80;94316.94;6142076;23;20290;-89
2024/04/06 20:37:12;;;;;;;5.28;4.78;;;;;;;22.43;37.59;94332.44;6151118;23;20171;-89
2024/04/06 20:39:50;;;;;;;7.32;4.95;;;;;;;22.39;38.12;94340.09;6150453;23;20194;-88
2024/04/06 20:45:36;;;;;;;6.15;4.72;;;;;;;22.33;38.21;94352.47;6147966;23;20174;-89
2024/04/06 20:48:18;;;;;;;5.60;4.20;;;;;;;22.30;38.21;94354.88;6147096;23;20199;-89
2024/04/06 20:50:45;;;;;;;4.25;3.75;;;;;;;22.30;38.18;94357.50;6150250;23;20163;-88
2024/04/06 20:53:43;;;;;;;9.10;6.53;;;;;;;22.29;38.65;94379.56;6151099;23;20179;-89
2024/04/06 20:56:44;;;;;;;6.40;5.50;;;;;;;22.25;38.46;94384.56;6150271;23;20249;-89